createdAt,value
2024-02-19T00:01:09.659Z,15.07
2024-02-19T00:03:36.794Z,13.73
2024-02-19T00:06:05.865Z,13.20
2024-02-19T00:08:32.963Z,15.17
2024-02-19T00:10:59.968Z,14.87
2024-02-19T00:13:26.948Z,14.37
2024-02-19T00:15:54.145Z,15.53
2024-02-19T00:18:21.857Z,14.20
2024-02-19T00:20:49.025Z,14.67
2024-02-19T00:23:16.023Z,13.93
2024-02-19T00:25:42.916Z,14.80
2024-02-19T00:28:11.913Z,13.73
2024-02-19T00:30:39.671Z,14.27
2024-02-19T00:33:07.057Z,13.27
2024-02-19T00:35:34.079Z,14.10
2024-02-19T00:38:01.311Z,12.00
2024-02-19T00:40:28.293Z,14.60
2024-02-19T00:42:55.358Z,14.60
2024-02-19T00:45:22.357Z,14.07
2024-02-19T00:47:49.364Z,13.10
2024-02-19T00:50:16.976Z,13.60
2024-02-19T00:52:43.902Z,14.87
2024-02-19T00:55:11.040Z,12.67
2024-02-19T00:57:38.643Z,15.67
2024-02-19T01:00:09.362Z,15.80
2024-02-19T01:02:36.952Z,14.93
2024-02-19T01:05:05.090Z,15.33
2024-02-19T01:07:32.752Z,15.40
2024-02-19T01:09:59.851Z,14.27
2024-02-19T01:12:26.860Z,16.47
2024-02-19T01:14:53.773Z,14.63
2024-02-19T01:17:21.163Z,15.10
2024-02-19T01:19:48.258Z,15.37
2024-02-19T01:22:15.410Z,14.37
2024-02-19T01:24:42.540Z,17.67
2024-02-19T01:27:09.574Z,15.97
2024-02-19T01:29:36.576Z,17.13
2024-02-19T01:32:03.704Z,17.33
2024-02-19T01:34:31.317Z,17.50
2024-02-19T01:37:01.795Z,17.00
2024-02-19T01:39:28.788Z,17.43
2024-02-19T01:41:56.337Z,15.97
2024-02-19T01:44:23.427Z,16.57
2024-02-19T01:46:51.532Z,18.30
2024-02-19T01:49:21.101Z,17.40
2024-02-19T01:51:48.782Z,16.80
2024-02-19T01:54:16.102Z,17.97
2024-02-19T01:56:44.319Z,15.23
2024-02-19T01:59:12.230Z,16.57
2024-02-19T02:01:41.027Z,14.13
2024-02-19T02:04:10.035Z,15.60
2024-02-19T02:06:37.204Z,13.40
2024-02-19T02:09:04.887Z,15.77
2024-02-19T02:11:31.871Z,14.47
2024-02-19T02:13:58.857Z,14.47
2024-02-19T02:16:27.277Z,14.00
2024-02-19T02:18:55.242Z,12.50
2024-02-19T02:21:23.017Z,14.73
2024-02-19T02:23:50.161Z,14.57
2024-02-19T02:26:17.428Z,15.50
2024-02-19T02:28:44.370Z,14.13
2024-02-19T02:31:11.536Z,13.13
2024-02-19T02:33:38.927Z,14.50
2024-02-19T02:36:07.003Z,14.53
2024-02-19T02:38:33.946Z,14.50
2024-02-19T02:41:00.919Z,13.93
2024-02-19T02:43:28.618Z,12.83
2024-02-19T02:45:55.652Z,15.20
2024-02-19T02:48:23.787Z,14.60
2024-02-19T02:50:50.860Z,13.53
2024-02-19T02:53:18.571Z,15.03
2024-02-19T02:55:45.730Z,14.63
2024-02-19T02:58:12.851Z,14.30
2024-02-19T03:00:40.051Z,14.27
2024-02-19T03:03:07.287Z,14.73
2024-02-19T03:05:34.424Z,14.07
2024-02-19T03:08:01.474Z,13.27
2024-02-19T03:10:28.574Z,13.43
2024-02-19T03:12:55.572Z,14.20
2024-02-19T03:15:22.727Z,15.40
2024-02-19T03:17:49.737Z,13.20
2024-02-19T03:20:19.784Z,13.80
2024-02-19T03:22:47.068Z,14.20
2024-02-19T03:25:14.217Z,12.53
2024-02-19T03:27:41.516Z,13.30
2024-02-19T03:30:09.114Z,13.80
2024-02-19T03:32:36.113Z,12.10
2024-02-19T03:35:04.674Z,12.43
2024-02-19T03:37:32.137Z,12.27
2024-02-19T03:39:59.081Z,13.23
2024-02-19T03:42:26.222Z,13.17
2024-02-19T03:44:53.210Z,12.70
2024-02-19T03:47:20.127Z,11.90
2024-02-19T03:49:47.214Z,12.33
2024-02-19T03:52:14.292Z,13.43
2024-02-19T03:54:41.443Z,13.80
2024-02-19T03:57:08.508Z,13.10
2024-02-19T03:59:36.077Z,13.20
2024-02-19T04:02:04.104Z,13.63
2024-02-19T04:04:31.333Z,12.93
2024-02-19T04:06:58.488Z,13.63
2024-02-19T04:09:25.564Z,15.17
2024-02-19T04:11:52.550Z,13.20
2024-02-19T04:14:19.638Z,13.43
2024-02-19T04:16:46.650Z,12.80
2024-02-19T04:19:13.726Z,13.27
2024-02-19T04:21:45.593Z,12.47
2024-02-19T04:24:13.538Z,11.37
2024-02-19T04:26:40.747Z,12.00
2024-02-19T04:29:08.877Z,10.90
2024-02-19T04:31:35.874Z,11.87
2024-02-19T04:34:03.159Z,11.20
2024-02-19T04:36:30.309Z,12.03
2024-02-19T04:38:57.202Z,10.30
2024-02-19T04:41:24.161Z,11.33
2024-02-19T04:43:51.179Z,11.93
2024-02-19T04:46:18.216Z,10.80
2024-02-19T04:48:45.559Z,9.87
2024-02-19T04:51:12.668Z,11.47
2024-02-19T04:53:39.638Z,11.60
2024-02-19T04:56:07.040Z,11.57
2024-02-19T04:58:34.070Z,11.60
2024-02-19T05:01:02.859Z,11.73
2024-02-19T05:03:30.070Z,12.03
2024-02-19T05:05:57.119Z,10.60
2024-02-19T05:08:24.167Z,11.03
2024-02-19T05:10:51.629Z,11.17
2024-02-19T05:13:18.753Z,11.10
2024-02-19T05:15:45.749Z,11.10
2024-02-19T05:18:13.087Z,11.33
2024-02-19T05:20:40.798Z,11.37
2024-02-19T05:23:07.740Z,11.03
2024-02-19T05:25:34.813Z,10.30
2024-02-19T05:28:02.162Z,12.57
2024-02-19T05:30:29.293Z,10.87
2024-02-19T05:32:56.379Z,10.77
2024-02-19T05:35:23.453Z,10.57
2024-02-19T05:37:50.443Z,12.10
2024-02-19T05:40:17.613Z,12.57
2024-02-19T05:42:44.681Z,10.10
2024-02-19T05:45:11.750Z,11.80
2024-02-19T05:47:39.333Z,10.63
2024-02-19T05:50:07.710Z,12.30
2024-02-19T05:52:34.889Z,12.00
2024-02-19T05:55:04.310Z,11.93
2024-02-19T05:57:31.557Z,10.67
2024-02-19T05:59:59.857Z,11.70
2024-02-19T06:02:27.313Z,11.33
2024-02-19T06:04:54.354Z,13.00
2024-02-19T06:07:21.269Z,13.03
2024-02-19T06:09:48.289Z,10.50
2024-02-19T06:12:15.380Z,12.00
2024-02-19T06:14:42.360Z,11.30
2024-02-19T06:17:09.792Z,12.77
2024-02-19T06:19:39.540Z,12.07
2024-02-19T06:22:07.959Z,11.70
2024-02-19T06:24:34.896Z,11.10
2024-02-19T06:27:01.885Z,12.27
2024-02-19T06:29:28.879Z,12.10
2024-02-19T06:31:56.527Z,12.17
2024-02-19T06:34:23.695Z,12.10
2024-02-19T06:36:50.865Z,12.97
2024-02-19T06:39:17.840Z,12.30
2024-02-19T06:41:45.500Z,11.73
2024-02-19T06:44:13.655Z,13.10
2024-02-19T06:46:40.648Z,12.60
2024-02-19T06:49:07.683Z,11.57
2024-02-19T06:51:34.812Z,12.57
2024-02-19T06:54:01.828Z,11.17
2024-02-19T06:56:28.880Z,12.13
2024-02-19T06:58:55.893Z,12.40
2024-02-19T07:01:22.835Z,13.00
2024-02-19T07:03:50.032Z,11.33
2024-02-19T07:06:19.156Z,11.60
2024-02-19T07:08:47.186Z,12.13
2024-02-19T07:11:14.809Z,11.40
2024-02-19T07:13:41.733Z,11.13
2024-02-19T07:16:08.702Z,12.30
2024-02-19T07:18:35.858Z,11.23
2024-02-19T07:21:02.877Z,12.60
2024-02-19T07:23:29.801Z,11.87
2024-02-19T07:25:57.291Z,13.13
2024-02-19T07:28:24.537Z,12.97
2024-02-19T07:30:51.590Z,12.67
2024-02-19T07:33:18.701Z,13.17
2024-02-19T07:35:45.825Z,11.97
2024-02-19T07:38:12.886Z,12.60
2024-02-19T07:40:40.516Z,12.57
2024-02-19T07:43:07.653Z,13.30
2024-02-19T07:45:34.646Z,12.40
2024-02-19T07:48:01.946Z,12.27
2024-02-19T07:50:29.034Z,12.73
2024-02-19T07:52:56.016Z,13.30
2024-02-19T07:55:23.431Z,12.70
2024-02-19T07:57:50.461Z,11.60
2024-02-19T08:00:18.665Z,12.43
2024-02-19T08:02:45.838Z,14.00
2024-02-19T08:05:13.462Z,12.30
2024-02-19T08:07:40.557Z,11.40
2024-02-19T08:10:08.224Z,14.03
2024-02-19T08:12:39.285Z,11.97
2024-02-19T08:15:10.078Z,12.47
2024-02-19T08:17:37.206Z,11.67
2024-02-19T08:20:05.605Z,12.77
2024-02-19T08:22:33.057Z,13.03
2024-02-19T08:25:00.338Z,13.80
2024-02-19T08:27:28.766Z,12.40
2024-02-19T08:29:55.864Z,14.90
2024-02-19T08:32:22.835Z,14.37
2024-02-19T08:34:49.928Z,13.70
2024-02-19T08:37:19.555Z,14.93
2024-02-19T08:39:48.635Z,14.50
2024-02-19T08:42:15.681Z,15.47
2024-02-19T08:44:42.726Z,15.07
2024-02-19T08:47:10.526Z,14.60
2024-02-19T08:49:38.940Z,14.93
2024-02-19T08:52:07.145Z,15.40
2024-02-19T08:54:34.480Z,14.80
2024-02-19T08:57:01.576Z,14.33
2024-02-19T08:59:28.764Z,13.63
2024-02-19T09:01:55.983Z,15.17
2024-02-19T09:04:23.327Z,13.93
2024-02-19T09:06:52.988Z,13.00
2024-02-19T09:09:20.240Z,12.53
2024-02-19T09:11:47.290Z,14.57
2024-02-19T09:14:14.324Z,12.23
2024-02-19T09:16:41.352Z,13.03
2024-02-19T09:19:10.114Z,13.70
2024-02-19T09:21:38.619Z,14.90
2024-02-19T09:24:06.132Z,15.00
2024-02-19T09:26:33.222Z,13.60
2024-02-19T09:29:00.357Z,15.77
2024-02-19T09:31:27.532Z,12.10
2024-02-19T09:33:54.859Z,14.10
2024-02-19T09:36:22.461Z,13.90
2024-02-19T09:38:50.054Z,12.57
2024-02-19T09:41:17.068Z,14.37
2024-02-19T09:43:44.146Z,13.50
2024-02-19T09:46:23.741Z,14.97
2024-02-19T09:48:54.735Z,14.40
2024-02-19T09:51:33.013Z,16.77
2024-02-19T09:54:06.828Z,14.03
2024-02-19T09:56:36.085Z,14.90
2024-02-19T09:59:05.227Z,13.80
2024-02-19T10:01:32.460Z,13.80
2024-02-19T10:03:59.778Z,14.50
2024-02-19T10:06:37.426Z,13.63
2024-02-19T10:09:12.633Z,14.20
2024-02-19T10:11:40.432Z,15.40
2024-02-19T10:14:08.024Z,13.77
2024-02-19T10:16:37.512Z,13.13
2024-02-19T10:19:09.648Z,13.47
2024-02-19T10:21:38.105Z,11.67
2024-02-19T10:24:06.366Z,12.70
2024-02-19T10:26:33.495Z,12.50
2024-02-19T10:29:01.018Z,12.93
2024-02-19T10:31:28.446Z,13.60
2024-02-19T10:33:55.956Z,11.80
2024-02-19T10:36:24.633Z,12.43
2024-02-19T10:38:52.545Z,13.03
2024-02-19T10:41:26.356Z,13.40
2024-02-19T10:43:53.608Z,13.13
2024-02-19T10:46:25.319Z,13.23
2024-02-19T10:48:53.339Z,13.23
2024-02-19T10:51:21.599Z,13.00
2024-02-19T10:53:58.347Z,12.70
2024-02-19T10:56:25.419Z,11.20
2024-02-19T10:58:57.218Z,12.47
2024-02-19T11:01:48.742Z,13.50
2024-02-19T11:04:21.214Z,13.20
2024-02-19T11:06:55.637Z,13.40
2024-02-19T11:09:33.973Z,15.10
2024-02-19T11:12:03.414Z,17.57
2024-02-19T11:14:33.950Z,15.50
2024-02-19T11:17:02.889Z,15.97
2024-02-19T11:19:36.929Z,15.37
2024-02-19T11:22:11.587Z,16.10
2024-02-19T11:24:41.270Z,14.93
2024-02-19T11:27:09.038Z,14.50
2024-02-19T11:29:43.634Z,14.10
2024-02-19T11:32:21.455Z,13.07
2024-02-19T11:34:51.408Z,13.57
2024-02-19T11:37:19.366Z,13.30
2024-02-19T11:39:46.654Z,13.90
2024-02-19T11:42:17.760Z,13.80
2024-02-19T11:44:46.638Z,14.10
2024-02-19T11:47:15.331Z,13.77
2024-02-19T11:49:43.625Z,15.87
2024-02-19T11:52:12.919Z,13.10
2024-02-19T11:54:42.062Z,14.60
2024-02-19T11:57:14.403Z,15.20
2024-02-19T11:59:41.562Z,13.50
2024-02-19T12:02:10.680Z,14.43
2024-02-19T12:04:40.504Z,13.77
2024-02-19T12:07:10.967Z,15.63
2024-02-19T12:09:38.730Z,15.23
2024-02-19T12:12:06.515Z,16.57
2024-02-19T12:14:33.614Z,14.63
2024-02-19T12:17:05.333Z,14.90
2024-02-19T12:19:33.006Z,14.40
2024-02-19T12:22:00.369Z,13.53
2024-02-19T12:24:27.902Z,14.80
2024-02-19T12:26:55.083Z,15.87
2024-02-19T12:29:22.294Z,18.60
2024-02-19T12:31:49.360Z,16.30
2024-02-19T12:34:16.502Z,15.50
2024-02-19T12:36:43.915Z,14.27
2024-02-19T12:39:11.961Z,14.67
2024-02-19T12:41:39.439Z,13.50
2024-02-19T12:44:06.898Z,12.10
2024-02-19T12:46:34.731Z,13.07
2024-02-19T12:49:05.054Z,14.70
2024-02-19T12:51:34.847Z,13.37
2024-02-19T12:54:03.906Z,15.13
2024-02-19T12:56:30.927Z,14.17
2024-02-19T12:58:57.924Z,13.60
2024-02-19T13:01:31.986Z,11.93
2024-02-19T13:04:04.105Z,12.63
2024-02-19T13:06:32.037Z,13.40
2024-02-19T13:08:59.772Z,15.30
2024-02-19T13:11:28.050Z,18.60
2024-02-19T13:13:55.541Z,17.40
2024-02-19T13:16:23.804Z,15.90
2024-02-19T13:18:52.764Z,14.47
2024-02-19T13:21:23.923Z,15.50
2024-02-19T13:23:51.102Z,16.70
2024-02-19T13:26:18.187Z,16.23
2024-02-19T13:28:45.210Z,16.53
2024-02-19T13:31:12.879Z,16.33
2024-02-19T13:33:41.201Z,16.83
2024-02-19T13:36:09.991Z,14.83
2024-02-19T13:38:37.072Z,13.20
2024-02-19T13:41:05.457Z,14.50
2024-02-19T13:43:33.963Z,14.00
2024-02-19T13:46:05.353Z,12.97
2024-02-19T13:48:37.102Z,13.60
2024-02-19T13:51:04.908Z,13.07
2024-02-19T13:53:33.346Z,15.30
2024-02-19T13:56:01.343Z,15.70
2024-02-19T13:58:29.818Z,14.90
2024-02-19T14:01:05.393Z,15.70
2024-02-19T14:03:33.050Z,16.17
2024-02-19T14:06:00.376Z,15.17
2024-02-19T14:08:28.255Z,14.50
2024-02-19T14:10:56.733Z,15.80
2024-02-19T14:13:24.149Z,14.07
2024-02-19T14:15:51.267Z,12.87
2024-02-19T14:18:18.386Z,13.70
2024-02-19T14:20:45.530Z,13.67
2024-02-19T14:23:13.849Z,13.70
2024-02-19T14:25:41.015Z,13.67
2024-02-19T14:28:10.700Z,13.33
2024-02-19T14:30:38.650Z,17.40
2024-02-19T14:33:06.463Z,17.90
2024-02-19T14:35:34.298Z,27.13
2024-02-19T14:38:03.237Z,23.03
2024-02-19T14:40:30.294Z,20.00
2024-02-19T14:42:57.392Z,17.93
2024-02-19T14:45:24.489Z,16.20
2024-02-19T14:47:51.560Z,15.20
2024-02-19T14:50:18.740Z,15.17
2024-02-19T14:52:45.940Z,13.00
2024-02-19T14:55:15.266Z,12.53
2024-02-19T14:57:45.870Z,13.03
2024-02-19T15:00:21.970Z,12.37
2024-02-19T15:02:51.265Z,12.30
2024-02-19T15:05:19.772Z,14.13
2024-02-19T15:07:54.858Z,14.80
2024-02-19T15:10:28.783Z,13.93
2024-02-19T15:12:57.962Z,14.17
2024-02-19T15:15:25.338Z,12.70
2024-02-19T15:17:53.455Z,14.17
2024-02-19T15:20:20.824Z,13.10
2024-02-19T15:22:50.840Z,12.40
2024-02-19T15:25:18.189Z,13.30
2024-02-19T15:27:45.213Z,13.93
2024-02-19T15:30:13.315Z,14.60
2024-02-19T15:32:41.232Z,13.40
2024-02-19T15:35:08.659Z,14.10
2024-02-19T15:37:35.870Z,14.43
2024-02-19T15:40:03.033Z,15.17
2024-02-19T15:42:30.083Z,15.30
2024-02-19T15:44:58.367Z,13.80
2024-02-19T15:47:26.727Z,14.17
2024-02-19T15:49:58.138Z,13.33
2024-02-19T15:52:25.940Z,14.03
2024-02-19T15:54:53.175Z,13.13
2024-02-19T15:57:21.438Z,14.53
2024-02-19T15:59:48.508Z,14.73
2024-02-19T16:02:15.739Z,16.80
2024-02-19T16:04:43.280Z,15.50
2024-02-19T16:07:10.783Z,16.57
2024-02-19T16:09:37.930Z,18.48
2024-02-19T16:12:07.468Z,19.40
2024-02-19T16:14:40.783Z,20.73
2024-02-19T16:17:08.228Z,20.23
2024-02-19T16:19:35.352Z,19.90
2024-02-19T16:22:02.436Z,20.80
2024-02-19T16:24:34.681Z,19.20
2024-02-19T16:27:03.906Z,18.70
2024-02-19T16:29:30.975Z,20.70
2024-02-19T16:31:58.210Z,19.50
2024-02-19T16:34:25.327Z,19.40
2024-02-19T16:36:53.434Z,18.00
2024-02-19T16:39:20.978Z,17.73
2024-02-19T16:41:48.003Z,18.20
2024-02-19T16:44:15.967Z,18.27
2024-02-19T16:46:43.433Z,18.80
2024-02-19T16:49:10.784Z,16.90
2024-02-19T16:51:44.949Z,17.83
2024-02-19T16:54:12.301Z,17.37
2024-02-19T16:56:39.657Z,17.77
2024-02-19T16:59:06.789Z,17.27
2024-02-19T17:01:34.777Z,16.67
2024-02-19T17:04:03.393Z,18.10
2024-02-19T17:06:30.614Z,17.67
2024-02-19T17:08:59.164Z,18.80
2024-02-19T17:11:26.177Z,18.50
2024-02-19T17:13:53.305Z,19.67
2024-02-19T17:16:20.456Z,17.53
2024-02-19T17:18:47.508Z,18.17
2024-02-19T17:21:14.520Z,16.80
2024-02-19T17:23:44.057Z,18.40
2024-02-19T17:26:11.197Z,17.87
2024-02-19T17:28:38.258Z,18.20
2024-02-19T17:31:07.528Z,18.57
2024-02-19T17:33:34.533Z,19.17
2024-02-19T17:36:01.489Z,18.77
2024-02-19T17:38:29.351Z,18.33
2024-02-19T17:40:59.406Z,18.23
2024-02-19T17:43:26.638Z,16.30
2024-02-19T17:45:53.625Z,15.47
2024-02-19T17:48:22.426Z,15.77
2024-02-19T17:50:51.788Z,14.10
2024-02-19T17:53:18.692Z,13.87
2024-02-19T17:55:46.903Z,13.30
2024-02-19T17:58:14.511Z,14.20
2024-02-19T18:00:43.949Z,15.23
2024-02-19T18:03:11.109Z,14.10
2024-02-19T18:05:38.358Z,14.53
2024-02-19T18:08:05.809Z,14.50
2024-02-19T18:10:32.970Z,13.80
2024-02-19T18:13:01.277Z,13.83
2024-02-19T18:15:28.331Z,14.50
2024-02-19T18:17:58.039Z,12.23
2024-02-19T18:20:25.268Z,16.37
2024-02-19T18:22:53.061Z,15.53
2024-02-19T18:25:20.309Z,15.70
2024-02-19T18:27:47.317Z,15.27
2024-02-19T18:30:14.767Z,16.93
2024-02-19T18:32:42.626Z,16.03
2024-02-19T18:35:10.179Z,15.90
2024-02-19T18:37:37.750Z,16.93
2024-02-19T18:40:08.405Z,16.60
2024-02-19T18:42:36.960Z,16.87
2024-02-19T18:45:04.426Z,16.80
2024-02-19T18:47:31.798Z,18.23
2024-02-19T18:49:59.183Z,16.80
2024-02-19T18:52:26.311Z,17.70
2024-02-19T18:54:53.515Z,17.17
2024-02-19T18:57:20.580Z,17.80
2024-02-19T18:59:47.577Z,15.60
2024-02-19T19:02:16.881Z,18.63
2024-02-19T19:04:45.113Z,19.20
2024-02-19T19:07:12.466Z,16.70
2024-02-19T19:09:42.050Z,16.13
2024-02-19T19:12:11.508Z,16.10
2024-02-19T19:14:39.867Z,17.70
2024-02-19T19:17:09.907Z,16.77
2024-02-19T19:19:39.647Z,18.23
2024-02-19T19:22:07.243Z,16.47
2024-02-19T19:24:37.314Z,18.17
2024-02-19T19:27:07.536Z,17.17
2024-02-19T19:29:34.954Z,18.23
2024-02-19T19:32:02.038Z,18.90
2024-02-19T19:34:29.042Z,19.30
2024-02-19T19:36:56.182Z,18.43
2024-02-19T19:39:23.395Z,19.37
2024-02-19T19:41:50.552Z,18.10
2024-02-19T19:44:20.388Z,19.87
2024-02-19T19:46:47.329Z,19.00
2024-02-19T19:49:18.209Z,20.10
2024-02-19T19:51:45.523Z,18.73
2024-02-19T19:54:12.934Z,18.43
2024-02-19T19:56:41.724Z,18.10
2024-02-19T19:59:09.638Z,19.70
2024-02-19T20:01:37.442Z,21.53
2024-02-19T20:04:06.484Z,18.70
2024-02-19T20:06:34.383Z,19.77
2024-02-19T20:09:02.446Z,20.43
2024-02-19T20:11:29.559Z,18.90
2024-02-19T20:13:56.690Z,19.70
2024-02-19T20:16:23.768Z,19.67
2024-02-19T20:18:50.947Z,20.70
2024-02-19T20:21:18.301Z,22.13
2024-02-19T20:23:46.068Z,20.80
2024-02-19T20:26:13.282Z,19.53
2024-02-19T20:28:40.304Z,20.23
2024-02-19T20:31:07.381Z,19.93
2024-02-19T20:33:34.656Z,21.17
2024-02-19T20:36:03.327Z,26.97
2024-02-19T20:38:30.255Z,26.07
2024-02-19T20:40:57.194Z,23.60
2024-02-19T20:43:24.190Z,20.03
2024-02-19T20:45:51.358Z,22.27
2024-02-19T20:48:18.485Z,20.10
2024-02-19T20:50:45.549Z,20.00
2024-02-19T20:53:14.684Z,20.73
2024-02-19T20:55:42.506Z,22.00
2024-02-19T20:58:09.651Z,19.03
2024-02-19T21:00:36.715Z,22.03
2024-02-19T21:03:04.314Z,18.80
2024-02-19T21:05:31.346Z,19.70
2024-02-19T21:07:58.602Z,25.17
2024-02-19T21:10:25.766Z,21.47
2024-02-19T21:12:52.805Z,20.90
2024-02-19T21:15:22.134Z,21.10
2024-02-19T21:17:49.184Z,21.10
2024-02-19T21:20:16.616Z,21.77
2024-02-19T21:22:44.117Z,22.40
2024-02-19T21:25:12.759Z,21.57
2024-02-19T21:27:40.499Z,21.90
2024-02-19T21:30:10.078Z,28.50
2024-02-19T21:32:37.534Z,24.97
2024-02-19T21:35:08.057Z,25.80
2024-02-19T21:37:36.550Z,23.47
2024-02-19T21:40:05.083Z,25.27
2024-02-19T21:42:35.231Z,17.87
2024-02-19T21:45:04.701Z,18.73
2024-02-19T21:47:31.844Z,19.10
2024-02-19T21:49:59.081Z,22.50
2024-02-19T21:52:27.042Z,11.80
2024-02-19T21:54:54.414Z,15.60
2024-02-19T21:57:21.398Z,16.40
2024-02-19T21:59:53.992Z,10.33
2024-02-19T22:02:21.590Z,6.37
2024-02-19T22:04:48.597Z,5.80
2024-02-19T22:07:15.961Z,6.60
2024-02-19T22:09:43.102Z,6.00
2024-02-19T22:12:10.220Z,2.50
2024-02-19T22:14:37.271Z,2.57
2024-02-19T22:17:05.538Z,4.90
2024-02-19T22:19:32.605Z,3.40
2024-02-19T22:21:59.631Z,2.70
2024-02-19T22:24:26.809Z,2.07
2024-02-19T22:26:54.809Z,2.67
2024-02-19T22:29:21.829Z,2.40
2024-02-19T22:31:48.783Z,2.33
2024-02-19T22:34:15.850Z,2.70
2024-02-19T22:36:42.861Z,2.17
2024-02-19T22:39:10.996Z,2.47
2024-02-19T22:41:43.400Z,2.40
2024-02-19T22:44:10.345Z,4.20
2024-02-19T22:46:37.352Z,3.17
2024-02-19T22:49:04.407Z,2.43
2024-02-19T22:51:31.715Z,2.50
2024-02-19T22:53:58.789Z,2.80
2024-02-19T22:56:25.816Z,2.17
2024-02-19T22:59:00.906Z,2.17
2024-02-19T23:01:34.874Z,4.60
2024-02-19T23:04:02.370Z,9.70
2024-02-19T23:06:29.410Z,10.23
2024-02-19T23:08:56.709Z,14.50
2024-02-19T23:11:23.714Z,10.33
2024-02-19T23:13:51.927Z,10.60
2024-02-19T23:16:18.990Z,12.00
2024-02-19T23:18:46.016Z,11.77
2024-02-19T23:21:17.268Z,12.33
2024-02-19T23:23:44.216Z,15.13
2024-02-19T23:26:11.469Z,12.40
2024-02-19T23:28:38.536Z,13.63
2024-02-19T23:31:05.784Z,12.00
2024-02-19T23:33:32.854Z,14.60
2024-02-19T23:36:00.066Z,12.80
2024-02-19T23:38:27.514Z,7.97
2024-02-19T23:40:54.426Z,6.93
2024-02-19T23:43:22.007Z,3.90
2024-02-19T23:45:49.617Z,2.90
2024-02-19T23:48:17.556Z,2.40
2024-02-19T23:50:45.516Z,2.40
2024-02-19T23:53:12.564Z,2.00
2024-02-19T23:55:43.491Z,2.10
2024-02-19T23:58:11.685Z,2.20
